createdAt,value
2023-02-06T00:01:54.137Z,86.58
2023-02-06T00:04:24.755Z,86.78
2023-02-06T00:06:55.376Z,86.95
2023-02-06T00:09:25.849Z,87.09
2023-02-06T00:11:56.536Z,91.46
2023-02-06T00:14:27.137Z,90.05
2023-02-06T00:17:01.355Z,87.92
2023-02-06T00:19:31.907Z,87.08
2023-02-06T00:22:02.680Z,92.67
2023-02-06T00:24:33.547Z,91.96
2023-02-06T00:27:04.173Z,91.66
2023-02-06T00:29:34.627Z,92.30
2023-02-06T00:32:08.497Z,83.31
2023-02-06T00:34:39.070Z,78.83
2023-02-06T00:37:10.248Z,88.18
2023-02-06T00:39:40.777Z,88.41
2023-02-06T00:42:11.420Z,88.80
2023-02-06T00:44:41.913Z,88.62
2023-02-06T00:47:15.127Z,87.26
2023-02-06T00:49:45.625Z,86.75
2023-02-06T00:52:16.275Z,86.45
2023-02-06T00:54:49.221Z,85.69
2023-02-06T00:57:19.885Z,91.82
2023-02-06T00:59:50.348Z,89.67
2023-02-06T01:02:23.649Z,86.23
2023-02-06T01:04:54.250Z,87.28
2023-02-06T01:07:24.833Z,87.34
2023-02-06T01:09:55.340Z,87.34
2023-02-06T01:12:28.641Z,86.45
2023-02-06T01:14:59.447Z,87.31
2023-02-06T01:17:34.139Z,91.49
2023-02-06T01:20:04.763Z,89.13
2023-02-06T01:22:37.716Z,87.27
2023-02-06T01:25:09.747Z,89.77
2023-02-06T01:27:43.093Z,92.46
2023-02-06T01:30:15.447Z,91.75
2023-02-06T01:32:48.718Z,91.08
2023-02-06T01:35:19.876Z,86.17
2023-02-06T01:37:50.514Z,84.71
2023-02-06T01:40:22.129Z,83.93
2023-02-06T01:42:52.820Z,84.10
2023-02-06T01:45:47.641Z,90.66
2023-02-06T01:48:24.382Z,88.07
2023-02-06T01:50:57.516Z,87.15
2023-02-06T01:53:29.498Z,87.09
2023-02-06T01:56:04.002Z,87.03
2023-02-06T01:58:38.809Z,85.56
2023-02-06T02:01:10.582Z,85.07
2023-02-06T02:03:49.029Z,84.72
2023-02-06T02:06:24.191Z,90.48
2023-02-06T02:08:58.497Z,90.10
2023-02-06T02:11:33.433Z,87.00
2023-02-06T02:14:05.225Z,86.09
2023-02-06T02:17:09.650Z,91.74
2023-02-06T02:20:11.404Z,91.05
2023-02-06T02:23:12.374Z,87.44
2023-02-06T02:26:09.699Z,83.54
2023-02-06T02:29:12.317Z,83.64
2023-02-06T02:32:10.844Z,83.85
2023-02-06T02:35:14.041Z,85.56
2023-02-06T02:38:00.918Z,91.97
2023-02-06T02:40:41.382Z,89.40
2023-02-06T02:43:21.166Z,88.42
2023-02-06T02:45:55.091Z,88.12
2023-02-06T02:48:30.305Z,88.27
2023-02-06T02:51:03.407Z,86.85
2023-02-06T02:53:36.516Z,86.85
2023-02-06T02:56:18.200Z,86.30
2023-02-06T02:58:54.101Z,91.63
2023-02-06T03:01:32.325Z,89.91
2023-02-06T03:04:10.944Z,89.29
2023-02-06T03:07:10.832Z,88.52
2023-02-06T03:10:02.285Z,88.49
2023-02-06T03:12:41.889Z,87.57
2023-02-06T03:15:22.768Z,87.26
2023-02-06T03:17:59.307Z,87.21
2023-02-06T03:20:30.954Z,92.57
2023-02-06T03:23:04.038Z,90.92
2023-02-06T03:25:41.382Z,89.31
2023-02-06T03:28:24.071Z,88.81
2023-02-06T03:30:59.229Z,89.00
2023-02-06T03:33:35.405Z,88.04
2023-02-06T03:36:06.589Z,89.08
2023-02-06T03:38:37.206Z,89.15
2023-02-06T03:41:11.124Z,89.37
2023-02-06T03:43:42.075Z,89.28
2023-02-06T03:46:16.333Z,87.96
2023-02-06T03:48:50.935Z,88.77
2023-02-06T03:51:25.322Z,89.01
2023-02-06T03:53:58.849Z,89.21
2023-02-06T03:56:37.598Z,89.15
2023-02-06T03:59:08.245Z,89.41
2023-02-06T04:01:43.564Z,89.45
2023-02-06T04:04:14.105Z,89.21
2023-02-06T04:06:45.315Z,88.84
2023-02-06T04:09:16.078Z,88.89
2023-02-06T04:11:49.373Z,85.88
2023-02-06T04:14:19.829Z,83.29
2023-02-06T04:16:50.544Z,82.24
2023-02-06T04:19:21.108Z,81.21
2023-02-06T04:21:52.263Z,81.19
2023-02-06T04:24:22.794Z,81.51
2023-02-06T04:26:56.434Z,83.10
2023-02-06T04:29:26.970Z,83.13
2023-02-06T04:32:02.222Z,83.54
2023-02-06T04:34:32.979Z,83.85
2023-02-06T04:37:05.119Z,83.54
2023-02-06T04:39:37.110Z,84.19
2023-02-06T04:42:10.724Z,83.95
2023-02-06T04:44:41.466Z,83.95
2023-02-06T04:47:12.049Z,84.41
2023-02-06T04:49:42.585Z,90.92
2023-02-06T04:52:13.160Z,91.54
2023-02-06T04:54:43.714Z,93.65
2023-02-06T04:57:16.914Z,92.24
2023-02-06T04:59:47.394Z,85.19
2023-02-06T05:02:18.324Z,84.36
2023-02-06T05:04:48.913Z,83.63
2023-02-06T05:07:19.866Z,83.22
2023-02-06T05:09:50.516Z,83.88
2023-02-06T05:12:24.828Z,84.07
2023-02-06T05:14:55.386Z,84.65
2023-02-06T05:17:26.261Z,84.85
2023-02-06T05:19:58.234Z,85.11
2023-02-06T05:22:29.471Z,85.13
2023-02-06T05:25:00.117Z,85.10
2023-02-06T05:27:33.475Z,85.75
2023-02-06T05:30:03.938Z,85.67
2023-02-06T05:32:35.409Z,92.50
2023-02-06T05:35:05.909Z,92.65
2023-02-06T05:37:37.487Z,92.97
2023-02-06T05:40:08.355Z,92.71
2023-02-06T05:42:41.592Z,92.79
2023-02-06T05:45:12.850Z,92.81
2023-02-06T05:47:43.544Z,92.74
2023-02-06T05:50:14.030Z,92.25
2023-02-06T05:52:44.794Z,92.04
2023-02-06T05:55:17.180Z,91.95
2023-02-06T05:57:50.803Z,91.11
2023-02-06T06:00:22.068Z,91.23
2023-02-06T06:02:52.711Z,90.69
2023-02-06T06:05:23.946Z,90.49
2023-02-06T06:07:54.648Z,90.22
2023-02-06T06:10:25.176Z,90.01
2023-02-06T06:12:59.202Z,89.76
2023-02-06T06:15:29.793Z,89.64
2023-02-06T06:18:00.927Z,89.30
2023-02-06T06:20:31.583Z,89.35
2023-02-06T06:23:02.299Z,88.99
2023-02-06T06:25:32.840Z,88.72
2023-02-06T06:28:06.716Z,88.54
2023-02-06T06:30:37.821Z,88.50
2023-02-06T06:33:08.724Z,87.94
2023-02-06T06:35:39.763Z,87.87
2023-02-06T06:38:10.401Z,87.70
2023-02-06T06:40:40.904Z,87.58
2023-02-06T06:43:14.095Z,87.81
2023-02-06T06:45:44.808Z,87.65
2023-02-06T06:48:15.441Z,87.73
2023-02-06T06:50:46.163Z,87.36
2023-02-06T06:53:16.851Z,87.33
2023-02-06T06:55:47.357Z,87.18
2023-02-06T06:58:20.808Z,87.23
2023-02-06T07:00:51.301Z,87.29
2023-02-06T07:03:22.040Z,87.33
2023-02-06T07:05:53.344Z,87.28
2023-02-06T07:08:24.084Z,86.89
2023-02-06T07:10:54.600Z,86.99
2023-02-06T07:13:27.787Z,86.85
2023-02-06T07:15:58.300Z,86.67
2023-02-06T07:18:28.833Z,86.85
2023-02-06T07:20:59.387Z,86.77
2023-02-06T07:23:30.034Z,87.11
2023-02-06T07:26:02.511Z,86.92
2023-02-06T07:28:36.333Z,86.52
2023-02-06T07:31:10.555Z,86.60
2023-02-06T07:33:41.102Z,86.56
2023-02-06T07:36:14.328Z,86.49
2023-02-06T07:38:45.226Z,86.54
2023-02-06T07:41:16.296Z,86.33
2023-02-06T07:43:49.500Z,86.27
2023-02-06T07:46:20.134Z,86.60
2023-02-06T07:48:50.784Z,86.25
2023-02-06T07:51:21.338Z,86.43
2023-02-06T07:53:52.024Z,86.62
2023-02-06T07:56:23.841Z,86.59
2023-02-06T07:58:58.204Z,86.30
2023-02-06T08:01:28.896Z,86.31
2023-02-06T08:03:59.827Z,86.07
2023-02-06T08:06:30.469Z,86.33
2023-02-06T08:09:01.081Z,86.19
2023-02-06T08:11:31.800Z,85.87
2023-02-06T08:14:05.110Z,85.29
2023-02-06T08:16:35.756Z,85.68
2023-02-06T08:19:07.093Z,85.57
2023-02-06T08:21:37.540Z,85.34
2023-02-06T08:24:09.820Z,84.65
2023-02-06T08:26:40.318Z,84.76
2023-02-06T08:29:14.595Z,85.26
2023-02-06T08:31:46.125Z,85.49
2023-02-06T08:34:18.065Z,85.53
2023-02-06T08:36:48.584Z,85.72
2023-02-06T08:39:19.432Z,85.64
2023-02-06T08:41:50.126Z,85.55
2023-02-06T08:44:23.416Z,85.76
2023-02-06T08:47:08.744Z,85.71
2023-02-06T08:49:40.379Z,85.23
2023-02-06T08:52:10.866Z,85.29
2023-02-06T08:54:41.503Z,84.92
2023-02-06T08:57:13.095Z,85.16
2023-02-06T08:59:46.283Z,85.47
2023-02-06T09:02:16.853Z,85.27
2023-02-06T09:04:47.342Z,84.84
2023-02-06T09:07:17.778Z,84.63
2023-02-06T09:09:48.368Z,84.78
2023-02-06T09:12:19.066Z,84.70
2023-02-06T09:14:52.677Z,84.53
2023-02-06T09:17:23.228Z,84.33
2023-02-06T09:19:53.947Z,84.62
2023-02-06T09:22:24.468Z,84.55
2023-02-06T09:24:55.004Z,85.10
2023-02-06T09:27:25.537Z,84.90
2023-02-06T09:29:58.806Z,85.20
2023-02-06T09:32:29.241Z,85.18
2023-02-06T09:34:59.928Z,85.61
2023-02-06T09:37:30.799Z,85.49
2023-02-06T09:40:01.408Z,85.20
2023-02-06T09:42:37.011Z,85.37
2023-02-06T09:45:15.461Z,84.71
2023-02-06T09:47:49.774Z,84.54
2023-02-06T09:50:29.924Z,84.60
2023-02-06T09:53:16.808Z,84.68
2023-02-06T09:55:49.461Z,84.34
2023-02-06T09:58:26.372Z,84.52
2023-02-06T10:01:04.338Z,83.33
2023-02-06T10:04:00.890Z,83.78
2023-02-06T10:06:36.060Z,84.13
2023-02-06T10:09:11.667Z,84.55
2023-02-06T10:11:48.190Z,84.48
2023-02-06T10:14:24.552Z,84.42
2023-02-06T10:17:01.313Z,83.97
2023-02-06T10:19:44.147Z,83.99
2023-02-06T10:22:21.267Z,83.30
2023-02-06T10:25:06.587Z,82.34
2023-02-06T10:27:40.672Z,82.63
2023-02-06T10:30:19.574Z,82.42
2023-02-06T10:32:58.704Z,82.26
2023-02-06T10:35:39.930Z,81.92
2023-02-06T10:38:48.651Z,82.05
2023-02-06T10:41:32.114Z,82.21
2023-02-06T10:44:11.258Z,82.62
2023-02-06T10:46:48.447Z,82.75
2023-02-06T10:49:28.062Z,82.20
2023-02-06T10:52:00.962Z,82.36
2023-02-06T10:54:37.753Z,82.23
2023-02-06T10:57:15.840Z,81.75
2023-02-06T10:59:53.749Z,81.72
2023-02-06T11:02:28.553Z,81.12
2023-02-06T11:05:07.417Z,81.50
2023-02-06T11:07:45.355Z,82.04
2023-02-06T11:10:18.424Z,82.28
2023-02-06T11:12:54.344Z,81.72
2023-02-06T11:15:32.821Z,81.71
2023-02-06T11:18:06.395Z,81.58
2023-02-06T11:20:41.370Z,81.79
2023-02-06T11:23:22.980Z,82.05
2023-02-06T11:26:01.253Z,82.49
2023-02-06T11:28:34.513Z,79.15
2023-02-06T11:31:08.164Z,77.96
2023-02-06T11:33:44.057Z,78.14
2023-02-06T11:36:29.270Z,78.11
2023-02-06T11:39:02.004Z,78.53
2023-02-06T11:41:34.030Z,79.43
2023-02-06T11:44:06.785Z,80.47
2023-02-06T11:46:39.175Z,81.51
2023-02-06T11:49:25.045Z,81.99
2023-02-06T11:51:59.972Z,82.50
2023-02-06T11:54:35.596Z,88.88
2023-02-06T11:57:09.549Z,89.26
2023-02-06T11:59:52.714Z,89.90
2023-02-06T12:02:30.166Z,89.91
2023-02-06T12:05:06.909Z,89.87
2023-02-06T12:07:43.530Z,90.10
2023-02-06T12:10:17.409Z,89.92
2023-02-06T12:12:53.302Z,89.51
2023-02-06T12:15:46.107Z,89.15
2023-02-06T12:18:19.760Z,88.46
2023-02-06T12:20:55.132Z,88.18
2023-02-06T12:23:30.820Z,87.83
2023-02-06T12:26:04.065Z,87.91
2023-02-06T12:28:39.463Z,87.64
2023-02-06T12:31:16.080Z,87.59
2023-02-06T12:33:54.719Z,87.25
2023-02-06T12:36:28.357Z,87.13
2023-02-06T12:39:05.115Z,86.46
2023-02-06T12:41:49.398Z,86.50
2023-02-06T12:44:28.192Z,86.01
2023-02-06T12:47:02.829Z,85.78
2023-02-06T12:49:39.898Z,85.71
2023-02-06T12:52:19.862Z,85.51
2023-02-06T12:54:58.716Z,84.07
2023-02-06T12:57:32.624Z,83.80
2023-02-06T13:00:38.294Z,83.53
2023-02-06T13:03:25.539Z,83.52
2023-02-06T13:05:58.531Z,83.42
2023-02-06T13:08:31.658Z,82.92
2023-02-06T13:11:08.934Z,83.34
2023-02-06T13:13:43.921Z,83.44
2023-02-06T13:16:14.807Z,83.63
2023-02-06T13:19:06.113Z,84.03
2023-02-06T13:21:37.012Z,84.04
2023-02-06T13:24:22.510Z,84.28
2023-02-06T13:27:15.674Z,84.08
2023-02-06T13:29:48.377Z,83.87
2023-02-06T13:32:47.187Z,84.04
2023-02-06T13:35:23.570Z,83.99
2023-02-06T13:38:12.334Z,84.17
2023-02-06T13:40:42.891Z,84.25
2023-02-06T13:43:22.803Z,84.38
2023-02-06T13:45:58.373Z,84.51
2023-02-06T13:48:52.500Z,84.22
2023-02-06T13:51:40.647Z,84.35
2023-02-06T13:54:43.696Z,83.91
2023-02-06T13:57:26.989Z,83.87
2023-02-06T14:00:04.264Z,83.03
2023-02-06T14:02:40.916Z,83.41
2023-02-06T14:05:16.235Z,83.46
2023-02-06T14:08:13.811Z,83.31
2023-02-06T14:11:14.688Z,83.54
2023-02-06T14:14:03.462Z,83.66
2023-02-06T14:16:49.673Z,83.49
2023-02-06T14:19:29.812Z,83.72
2023-02-06T14:22:07.286Z,83.80
2023-02-06T14:25:04.794Z,83.96
2023-02-06T14:27:50.352Z,84.31
2023-02-06T14:30:30.443Z,84.08
2023-02-06T14:33:14.706Z,84.21
2023-02-06T14:35:57.632Z,84.28
2023-02-06T14:39:10.992Z,84.34
2023-02-06T14:41:42.388Z,84.13
2023-02-06T14:44:16.043Z,84.24
2023-02-06T14:46:46.958Z,84.09
2023-02-06T14:49:32.750Z,84.52
2023-02-06T14:52:04.624Z,84.22
2023-02-06T14:54:37.084Z,84.34
2023-02-06T14:57:10.105Z,84.25
2023-02-06T14:59:40.603Z,84.05
2023-02-06T15:02:20.642Z,84.09
2023-02-06T15:04:54.146Z,84.09
2023-02-06T15:07:28.059Z,84.23
2023-02-06T15:10:07.347Z,84.37
2023-02-06T15:12:38.876Z,84.10
2023-02-06T15:15:20.532Z,84.05
2023-02-06T15:18:00.390Z,84.21
2023-02-06T15:20:40.469Z,84.28
2023-02-06T15:23:20.214Z,84.64
2023-02-06T15:26:07.527Z,84.06
2023-02-06T15:28:39.676Z,82.77
2023-02-06T15:31:21.007Z,79.59
2023-02-06T15:33:53.776Z,79.31
2023-02-06T15:36:31.845Z,79.83
2023-02-06T15:39:03.447Z,80.58
2023-02-06T15:41:35.008Z,81.42
2023-02-06T15:44:10.005Z,81.92
2023-02-06T15:46:41.566Z,83.99
2023-02-06T15:49:20.313Z,87.46
2023-02-06T15:51:58.704Z,88.15
2023-02-06T15:54:30.790Z,87.62
2023-02-06T15:57:06.679Z,86.79
2023-02-06T15:59:39.945Z,88.89
2023-02-06T16:02:10.958Z,88.98
2023-02-06T16:04:42.850Z,88.96
2023-02-06T16:07:19.778Z,89.47
2023-02-06T16:09:54.326Z,81.79
2023-02-06T16:12:25.733Z,79.74
2023-02-06T16:14:59.714Z,80.71
2023-02-06T16:17:35.583Z,80.69
2023-02-06T16:20:08.813Z,82.21
2023-02-06T16:22:42.564Z,82.62
2023-02-06T16:25:25.923Z,83.39
2023-02-06T16:27:56.737Z,85.59
2023-02-06T16:30:31.205Z,85.76
2023-02-06T16:33:11.257Z,85.43
2023-02-06T16:35:41.997Z,84.96
2023-02-06T16:38:15.384Z,85.42
2023-02-06T16:40:46.416Z,84.76
2023-02-06T16:43:17.215Z,92.42
2023-02-06T16:45:49.323Z,93.10
2023-02-06T16:48:21.456Z,93.84
2023-02-06T16:50:52.306Z,92.65
2023-02-06T16:53:27.590Z,86.06
2023-02-06T16:55:58.379Z,85.63
2023-02-06T16:58:32.083Z,86.20
2023-02-06T17:01:02.839Z,85.06
2023-02-06T17:03:33.680Z,84.63
2023-02-06T17:06:04.520Z,85.84
2023-02-06T17:08:41.990Z,86.36
2023-02-06T17:11:13.894Z,87.62
2023-02-06T17:13:44.686Z,87.60
2023-02-06T17:16:31.817Z,86.63
2023-02-06T17:19:02.899Z,88.42
2023-02-06T17:21:33.741Z,87.46
2023-02-06T17:24:14.069Z,87.77
2023-02-06T17:26:46.848Z,92.14
2023-02-06T17:29:18.244Z,93.37
2023-02-06T17:31:49.146Z,93.56
2023-02-06T17:34:20.045Z,95.02
2023-02-06T17:36:50.647Z,87.29
2023-02-06T17:39:24.624Z,86.04
2023-02-06T17:41:55.346Z,84.77
2023-02-06T17:44:26.200Z,86.67
2023-02-06T17:46:56.711Z,86.68
2023-02-06T17:49:28.041Z,87.78
2023-02-06T17:51:59.687Z,88.08
2023-02-06T17:54:33.068Z,87.91
2023-02-06T17:57:04.748Z,87.50
2023-02-06T17:59:35.984Z,87.86
2023-02-06T18:02:06.966Z,87.24
2023-02-06T18:04:37.907Z,87.21
2023-02-06T18:07:09.822Z,87.15
2023-02-06T18:09:44.126Z,87.87
2023-02-06T18:12:15.519Z,93.86
2023-02-06T18:14:48.307Z,94.00
2023-02-06T18:17:20.678Z,96.88
2023-02-06T18:19:52.401Z,89.84
2023-02-06T18:22:25.103Z,87.06
2023-02-06T18:25:01.181Z,86.71
2023-02-06T18:27:33.103Z,85.70
2023-02-06T18:30:04.911Z,86.95
2023-02-06T18:32:37.481Z,86.42
2023-02-06T18:35:09.574Z,87.58
2023-02-06T18:37:40.795Z,88.12
2023-02-06T18:40:15.280Z,88.16
2023-02-06T18:42:54.270Z,87.80
2023-02-06T18:45:26.737Z,88.21
2023-02-06T18:47:57.733Z,87.87
2023-02-06T18:50:28.370Z,87.54
2023-02-06T18:52:59.155Z,87.96
2023-02-06T18:55:35.165Z,94.54
2023-02-06T18:58:08.319Z,94.60
2023-02-06T19:00:42.258Z,98.13
2023-02-06T19:03:12.897Z,94.56
2023-02-06T19:05:43.538Z,89.50
2023-02-06T19:08:14.252Z,87.28
2023-02-06T19:10:47.854Z,86.42
2023-02-06T19:13:18.555Z,86.27
2023-02-06T19:15:49.272Z,86.76
2023-02-06T19:18:29.028Z,86.71
2023-02-06T19:21:11.072Z,87.52
2023-02-06T19:23:42.091Z,91.84
2023-02-06T19:26:17.825Z,94.50
2023-02-06T19:28:48.874Z,94.65
2023-02-06T19:31:24.147Z,94.84
2023-02-06T19:33:58.157Z,94.82
2023-02-06T19:36:30.382Z,95.05
2023-02-06T19:39:05.990Z,94.87
2023-02-06T19:41:39.916Z,94.62
2023-02-06T19:44:12.462Z,95.36
2023-02-06T19:46:43.337Z,88.92
2023-02-06T19:49:14.720Z,87.01
2023-02-06T19:51:45.628Z,86.51
2023-02-06T19:54:16.821Z,86.39
2023-02-06T19:56:51.292Z,85.40
2023-02-06T19:59:24.416Z,84.84
2023-02-06T20:01:57.692Z,85.40
2023-02-06T20:04:30.314Z,86.44
2023-02-06T20:07:01.464Z,86.78
2023-02-06T20:09:32.822Z,86.52
2023-02-06T20:12:06.870Z,86.92
2023-02-06T20:14:37.536Z,92.08
2023-02-06T20:17:09.524Z,93.14
2023-02-06T20:19:40.145Z,93.60
2023-02-06T20:22:11.940Z,95.89
2023-02-06T20:24:42.532Z,97.00
2023-02-06T20:27:17.337Z,97.04
2023-02-06T20:29:48.075Z,96.49
2023-02-06T20:32:19.836Z,95.79
2023-02-06T20:34:50.519Z,95.22
2023-02-06T20:37:21.679Z,95.00
2023-02-06T20:39:52.560Z,94.35
2023-02-06T20:42:27.429Z,94.31
2023-02-06T20:44:59.056Z,93.98
2023-02-06T20:47:29.927Z,93.45
2023-02-06T20:50:02.044Z,93.33
2023-02-06T20:52:34.461Z,92.84
2023-02-06T20:55:05.917Z,92.63
2023-02-06T20:57:39.305Z,93.05
2023-02-06T21:00:12.116Z,90.75
2023-02-06T21:02:43.055Z,90.20
2023-02-06T21:05:13.687Z,89.93
2023-02-06T21:07:44.311Z,90.04
2023-02-06T21:10:15.440Z,89.51
2023-02-06T21:12:49.774Z,88.87
2023-02-06T21:15:20.479Z,91.17
2023-02-06T21:17:51.152Z,94.55
2023-02-06T21:20:21.970Z,91.57
2023-02-06T21:22:54.741Z,90.79
2023-02-06T21:25:26.191Z,91.25
2023-02-06T21:27:59.454Z,91.73
2023-02-06T21:30:30.154Z,91.58
2023-02-06T21:33:01.153Z,91.87
2023-02-06T21:35:33.964Z,92.06
2023-02-06T21:38:04.479Z,92.03
2023-02-06T21:40:35.338Z,91.76
2023-02-06T21:43:08.454Z,91.61
2023-02-06T21:45:41.439Z,89.89
2023-02-06T21:48:12.390Z,88.40
2023-02-06T21:50:45.177Z,85.80
2023-02-06T21:53:16.266Z,84.46
2023-02-06T21:55:47.651Z,83.96
2023-02-06T21:58:20.864Z,83.69
2023-02-06T22:00:52.521Z,84.61
2023-02-06T22:03:24.487Z,84.92
2023-02-06T22:05:55.327Z,85.97
2023-02-06T22:08:26.631Z,87.48
2023-02-06T22:10:57.224Z,87.85
2023-02-06T22:13:30.721Z,88.24
2023-02-06T22:16:01.436Z,87.90
2023-02-06T22:18:32.742Z,87.80
2023-02-06T22:21:07.947Z,87.78
2023-02-06T22:23:38.691Z,88.32
2023-02-06T22:26:11.083Z,87.34
2023-02-06T22:28:45.886Z,87.19
2023-02-06T22:31:18.599Z,93.29
2023-02-06T22:33:49.386Z,93.60
2023-02-06T22:36:22.039Z,95.82
2023-02-06T22:38:56.792Z,91.27
2023-02-06T22:41:27.428Z,86.97
2023-02-06T22:44:00.791Z,86.85
2023-02-06T22:46:32.908Z,86.01
2023-02-06T22:49:03.732Z,87.45
2023-02-06T22:51:34.304Z,88.41
2023-02-06T22:54:05.802Z,87.82
2023-02-06T22:56:37.932Z,88.21
2023-02-06T22:59:13.286Z,88.41
2023-02-06T23:01:45.954Z,88.86
2023-02-06T23:04:18.687Z,88.98
2023-02-06T23:06:50.324Z,88.43
2023-02-06T23:09:23.314Z,88.26
2023-02-06T23:11:55.013Z,88.78
2023-02-06T23:14:29.269Z,90.15
2023-02-06T23:16:59.906Z,91.09
2023-02-06T23:19:30.593Z,91.27
2023-02-06T23:22:01.318Z,89.70
2023-02-06T23:24:31.997Z,88.47
2023-02-06T23:27:02.693Z,87.67
2023-02-06T23:29:35.844Z,94.07
2023-02-06T23:32:06.408Z,94.63
2023-02-06T23:34:39.094Z,94.31
2023-02-06T23:37:10.418Z,93.94
2023-02-06T23:39:43.870Z,86.37
2023-02-06T23:42:14.478Z,85.31
2023-02-06T23:44:47.639Z,85.42
2023-02-06T23:47:18.273Z,86.62
2023-02-06T23:49:48.770Z,87.40
2023-02-06T23:52:19.381Z,87.69
2023-02-06T23:54:49.912Z,87.70
2023-02-06T23:57:20.553Z,87.90
2023-02-06T23:59:53.927Z,88.09
